sensor_id;sensor_type;location;lat;lon;timestamp;temperature;humidity
8872;DHT22;4472;52.092;9.820;2022-10-16T00:00:53;14.50;99.90
8872;DHT22;4472;52.092;9.820;2022-10-16T00:03:41;14.50;99.90
8872;DHT22;4472;52.092;9.820;2022-10-16T00:06:29;14.40;99.90
8872;DHT22;4472;52.092;9.820;2022-10-16T00:09:17;14.40;99.90
8872;DHT22;4472;52.092;9.820;2022-10-16T00:12:04;14.20;99.90
8872;DHT22;4472;52.092;9.820;2022-10-16T00:14:52;14.10;99.90
8872;DHT22;4472;52.092;9.820;2022-10-16T00:17:41;14.10;99.90
8872;DHT22;4472;52.092;9.820;2022-10-16T00:20:28;14.00;99.90
8872;DHT22;4472;52.092;9.820;2022-10-16T00:23:17;14.10;99.90
8872;DHT22;4472;52.092;9.820;2022-10-16T00:26:06;14.00;99.90
8872;DHT22;4472;52.092;9.820;2022-10-16T00:28:54;14.10;99.90
8872;DHT22;4472;52.092;9.820;2022-10-16T00:31:41;14.10;99.90
8872;DHT22;4472;52.092;9.820;2022-10-16T00:34:29;14.00;99.90
8872;DHT22;4472;52.092;9.820;2022-10-16T00:37:16;14.10;99.90
8872;DHT22;4472;52.092;9.820;2022-10-16T00:40:04;14.10;99.90
8872;DHT22;4472;52.092;9.820;2022-10-16T00:42:52;14.10;99.90
8872;DHT22;4472;52.092;9.820;2022-10-16T00:45:39;14.20;99.90
8872;DHT22;4472;52.092;9.820;2022-10-16T00:48:26;14.30;99.90
8872;DHT22;4472;52.092;9.820;2022-10-16T00:51:15;14.30;99.90
8872;DHT22;4472;52.092;9.820;2022-10-16T00:54:08;14.40;99.90
8872;DHT22;4472;52.092;9.820;2022-10-16T00:56:58;14.40;99.90
8872;DHT22;4472;52.092;9.820;2022-10-16T00:59:47;14.50;99.90
8872;DHT22;4472;52.092;9.820;2022-10-16T01:02:34;14.50;99.90
8872;DHT22;4472;52.092;9.820;2022-10-16T01:05:22;14.50;99.90
8872;DHT22;4472;52.092;9.820;2022-10-16T01:08:15;14.60;99.90
8872;DHT22;4472;52.092;9.820;2022-10-16T01:11:11;14.50;99.90
8872;DHT22;4472;52.092;9.820;2022-10-16T01:14:05;14.50;99.90
8872;DHT22;4472;52.092;9.820;2022-10-16T01:16:55;14.50;99.90
8872;DHT22;4472;52.092;9.820;2022-10-16T01:20:07;14.50;99.90
8872;DHT22;4472;52.092;9.820;2022-10-16T01:23:21;14.50;99.90
8872;DHT22;4472;52.092;9.820;2022-10-16T01:26:15;14.60;99.90
8872;DHT22;4472;52.092;9.820;2022-10-16T01:29:13;14.50;99.90
8872;DHT22;4472;52.092;9.820;2022-10-16T01:32:08;14.60;99.90
8872;DHT22;4472;52.092;9.820;2022-10-16T01:35:00;14.40;99.90
8872;DHT22;4472;52.092;9.820;2022-10-16T01:37:51;14.50;99.90
8872;DHT22;4472;52.092;9.820;2022-10-16T01:40:44;14.50;99.90
8872;DHT22;4472;52.092;9.820;2022-10-16T01:43:36;14.40;99.90
8872;DHT22;4472;52.092;9.820;2022-10-16T01:46:26;14.40;99.90
8872;DHT22;4472;52.092;9.820;2022-10-16T01:49:16;14.40;99.90
8872;DHT22;4472;52.092;9.820;2022-10-16T01:52:08;14.50;99.90
8872;DHT22;4472;52.092;9.820;2022-10-16T01:54:56;14.40;99.90
8872;DHT22;4472;52.092;9.820;2022-10-16T01:57:46;14.40;99.90
8872;DHT22;4472;52.092;9.820;2022-10-16T02:00:37;14.40;99.90
8872;DHT22;4472;52.092;9.820;2022-10-16T02:03:26;14.40;99.90
8872;DHT22;4472;52.092;9.820;2022-10-16T02:06:14;14.40;99.90
8872;DHT22;4472;52.092;9.820;2022-10-16T02:09:01;14.30;99.90
8872;DHT22;4472;52.092;9.820;2022-10-16T02:11:49;14.30;99.90
8872;DHT22;4472;52.092;9.820;2022-10-16T02:14:38;14.30;99.90
8872;DHT22;4472;52.092;9.820;2022-10-16T02:17:25;14.40;99.90
8872;DHT22;4472;52.092;9.820;2022-10-16T02:20:14;14.20;99.90
8872;DHT22;4472;52.092;9.820;2022-10-16T02:23:02;14.20;99.90
8872;DHT22;4472;52.092;9.820;2022-10-16T02:25:50;14.20;99.90
8872;DHT22;4472;52.092;9.820;2022-10-16T02:28:43;14.20;99.90
8872;DHT22;4472;52.092;9.820;2022-10-16T02:31:35;14.20;99.90
8872;DHT22;4472;52.092;9.820;2022-10-16T02:34:25;14.00;99.90
8872;DHT22;4472;52.092;9.820;2022-10-16T02:37:16;14.00;99.90
8872;DHT22;4472;52.092;9.820;2022-10-16T02:40:05;14.00;99.90
8872;DHT22;4472;52.092;9.820;2022-10-16T02:42:54;13.90;99.90
8872;DHT22;4472;52.092;9.820;2022-10-16T02:45:42;14.10;99.90
8872;DHT22;4472;52.092;9.820;2022-10-16T02:48:29;14.00;99.90
8872;DHT22;4472;52.092;9.820;2022-10-16T02:51:16;14.00;99.90
8872;DHT22;4472;52.092;9.820;2022-10-16T02:54:04;14.00;99.90
8872;DHT22;4472;52.092;9.820;2022-10-16T02:56:52;14.00;99.90
8872;DHT22;4472;52.092;9.820;2022-10-16T02:59:39;14.00;99.90
8872;DHT22;4472;52.092;9.820;2022-10-16T03:02:26;14.00;99.90
8872;DHT22;4472;52.092;9.820;2022-10-16T03:05:14;14.10;99.90
8872;DHT22;4472;52.092;9.820;2022-10-16T03:08:01;14.10;99.90
8872;DHT22;4472;52.092;9.820;2022-10-16T03:10:50;14.00;99.90
8872;DHT22;4472;52.092;9.820;2022-10-16T03:13:37;14.00;99.90
8872;DHT22;4472;52.092;9.820;2022-10-16T03:16:24;14.00;99.90
8872;DHT22;4472;52.092;9.820;2022-10-16T03:19:11;14.00;99.90
8872;DHT22;4472;52.092;9.820;2022-10-16T03:21:59;14.00;99.90
8872;DHT22;4472;52.092;9.820;2022-10-16T03:24:46;14.00;99.90
8872;DHT22;4472;52.092;9.820;2022-10-16T03:27:34;13.90;99.90
8872;DHT22;4472;52.092;9.820;2022-10-16T03:30:21;13.90;99.90
8872;DHT22;4472;52.092;9.820;2022-10-16T03:33:08;14.10;99.90
8872;DHT22;4472;52.092;9.820;2022-10-16T03:35:56;13.90;99.90
8872;DHT22;4472;52.092;9.820;2022-10-16T03:38:43;14.00;99.90
8872;DHT22;4472;52.092;9.820;2022-10-16T03:41:30;13.90;99.90
8872;DHT22;4472;52.092;9.820;2022-10-16T03:44:18;13.90;99.90
8872;DHT22;4472;52.092;9.820;2022-10-16T03:47:06;14.00;99.90
8872;DHT22;4472;52.092;9.820;2022-10-16T03:49:53;14.00;99.90
8872;DHT22;4472;52.092;9.820;2022-10-16T03:52:40;13.90;99.90
8872;DHT22;4472;52.092;9.820;2022-10-16T03:55:27;13.90;99.90
8872;DHT22;4472;52.092;9.820;2022-10-16T03:58:14;13.90;99.90
8872;DHT22;4472;52.092;9.820;2022-10-16T04:01:03;13.90;99.90
8872;DHT22;4472;52.092;9.820;2022-10-16T04:03:50;13.90;99.90
8872;DHT22;4472;52.092;9.820;2022-10-16T04:06:40;13.90;99.90
8872;DHT22;4472;52.092;9.820;2022-10-16T04:09:27;13.90;99.90
8872;DHT22;4472;52.092;9.820;2022-10-16T04:12:14;14.00;99.90
8872;DHT22;4472;52.092;9.820;2022-10-16T04:15:02;13.80;99.90
8872;DHT22;4472;52.092;9.820;2022-10-16T04:17:51;13.80;99.90
8872;DHT22;4472;52.092;9.820;2022-10-16T04:20:38;13.80;99.90
8872;DHT22;4472;52.092;9.820;2022-10-16T04:23:25;13.90;99.90
8872;DHT22;4472;52.092;9.820;2022-10-16T04:26:12;13.90;99.90
8872;DHT22;4472;52.092;9.820;2022-10-16T04:28:59;13.90;99.90
8872;DHT22;4472;52.092;9.820;2022-10-16T04:31:47;13.80;99.90
8872;DHT22;4472;52.092;9.820;2022-10-16T04:34:35;13.80;99.90
8872;DHT22;4472;52.092;9.820;2022-10-16T04:37:24;13.90;99.90
8872;DHT22;4472;52.092;9.820;2022-10-16T04:40:12;13.90;99.90
8872;DHT22;4472;52.092;9.820;2022-10-16T04:42:59;13.90;99.90
8872;DHT22;4472;52.092;9.820;2022-10-16T04:45:46;14.00;99.90
8872;DHT22;4472;52.092;9.820;2022-10-16T04:48:36;14.00;99.90
8872;DHT22;4472;52.092;9.820;2022-10-16T04:51:24;14.00;99.90
8872;DHT22;4472;52.092;9.820;2022-10-16T04:54:13;14.10;99.90
8872;DHT22;4472;52.092;9.820;2022-10-16T04:57:00;14.20;99.90
8872;DHT22;4472;52.092;9.820;2022-10-16T04:59:47;14.40;99.90
8872;DHT22;4472;52.092;9.820;2022-10-16T05:02:35;14.30;99.90
8872;DHT22;4472;52.092;9.820;2022-10-16T05:05:22;14.30;99.90
8872;DHT22;4472;52.092;9.820;2022-10-16T05:08:11;14.40;99.90
8872;DHT22;4472;52.092;9.820;2022-10-16T05:10:58;14.40;99.90
8872;DHT22;4472;52.092;9.820;2022-10-16T05:13:45;14.40;99.90
8872;DHT22;4472;52.092;9.820;2022-10-16T05:16:32;14.40;99.90
8872;DHT22;4472;52.092;9.820;2022-10-16T05:19:20;14.40;99.90
8872;DHT22;4472;52.092;9.820;2022-10-16T05:22:07;14.50;99.90
8872;DHT22;4472;52.092;9.820;2022-10-16T05:24:55;14.40;99.90
8872;DHT22;4472;52.092;9.820;2022-10-16T05:27:43;14.40;99.90
8872;DHT22;4472;52.092;9.820;2022-10-16T05:30:30;14.30;99.90
8872;DHT22;4472;52.092;9.820;2022-10-16T05:33:19;14.30;99.90
8872;DHT22;4472;52.092;9.820;2022-10-16T05:36:08;14.40;99.90
8872;DHT22;4472;52.092;9.820;2022-10-16T05:38:55;14.30;99.90
8872;DHT22;4472;52.092;9.820;2022-10-16T05:41:44;14.30;99.90
8872;DHT22;4472;52.092;9.820;2022-10-16T05:44:31;14.20;99.90
8872;DHT22;4472;52.092;9.820;2022-10-16T05:47:19;14.20;99.90
8872;DHT22;4472;52.092;9.820;2022-10-16T05:50:07;14.20;99.90
8872;DHT22;4472;52.092;9.820;2022-10-16T05:52:54;14.20;99.90
8872;DHT22;4472;52.092;9.820;2022-10-16T05:55:41;14.20;99.90
8872;DHT22;4472;52.092;9.820;2022-10-16T05:58:32;14.20;99.90
8872;DHT22;4472;52.092;9.820;2022-10-16T06:01:20;14.20;99.90
8872;DHT22;4472;52.092;9.820;2022-10-16T06:04:09;14.20;99.90
8872;DHT22;4472;52.092;9.820;2022-10-16T06:06:58;14.20;99.90
8872;DHT22;4472;52.092;9.820;2022-10-16T06:09:48;14.20;99.90
8872;DHT22;4472;52.092;9.820;2022-10-16T06:12:35;14.20;99.90
8872;DHT22;4472;52.092;9.820;2022-10-16T06:15:24;14.40;99.90
8872;DHT22;4472;52.092;9.820;2022-10-16T06:18:11;14.30;99.90
8872;DHT22;4472;52.092;9.820;2022-10-16T06:20:58;14.40;99.90
8872;DHT22;4472;52.092;9.820;2022-10-16T06:23:46;14.50;99.90
8872;DHT22;4472;52.092;9.820;2022-10-16T06:26:33;14.60;99.90
8872;DHT22;4472;52.092;9.820;2022-10-16T06:29:20;14.60;99.90
8872;DHT22;4472;52.092;9.820;2022-10-16T06:32:08;14.50;99.90
8872;DHT22;4472;52.092;9.820;2022-10-16T06:34:56;14.60;99.90
8872;DHT22;4472;52.092;9.820;2022-10-16T06:37:43;14.60;99.90
8872;DHT22;4472;52.092;9.820;2022-10-16T06:40:30;14.70;99.90
8872;DHT22;4472;52.092;9.820;2022-10-16T06:43:17;14.70;99.90
8872;DHT22;4472;52.092;9.820;2022-10-16T06:46:06;14.70;99.90
8872;DHT22;4472;52.092;9.820;2022-10-16T06:48:56;14.70;99.90
8872;DHT22;4472;52.092;9.820;2022-10-16T06:51:43;14.70;99.90
8872;DHT22;4472;52.092;9.820;2022-10-16T06:54:30;14.80;99.90
8872;DHT22;4472;52.092;9.820;2022-10-16T06:57:18;14.90;99.90
8872;DHT22;4472;52.092;9.820;2022-10-16T07:00:06;15.00;99.90
8872;DHT22;4472;52.092;9.820;2022-10-16T07:02:53;15.00;99.90
8872;DHT22;4472;52.092;9.820;2022-10-16T07:05:42;15.10;99.90
8872;DHT22;4472;52.092;9.820;2022-10-16T07:08:31;15.20;99.90
8872;DHT22;4472;52.092;9.820;2022-10-16T07:11:20;15.50;99.90
8872;DHT22;4472;52.092;9.820;2022-10-16T07:14:15;15.50;99.90
8872;DHT22;4472;52.092;9.820;2022-10-16T07:17:02;15.50;99.90
8872;DHT22;4472;52.092;9.820;2022-10-16T07:19:50;15.60;99.90
8872;DHT22;4472;52.092;9.820;2022-10-16T07:22:40;15.70;99.90
8872;DHT22;4472;52.092;9.820;2022-10-16T07:25:27;15.90;99.90
8872;DHT22;4472;52.092;9.820;2022-10-16T07:28:14;16.10;99.90
8872;DHT22;4472;52.092;9.820;2022-10-16T07:31:02;16.10;99.90
8872;DHT22;4472;52.092;9.820;2022-10-16T07:33:50;16.20;99.90
8872;DHT22;4472;52.092;9.820;2022-10-16T07:36:37;16.30;99.90
8872;DHT22;4472;52.092;9.820;2022-10-16T07:39:26;16.30;99.90
8872;DHT22;4472;52.092;9.820;2022-10-16T07:42:13;16.30;99.90
8872;DHT22;4472;52.092;9.820;2022-10-16T07:45:00;16.40;99.90
8872;DHT22;4472;52.092;9.820;2022-10-16T07:47:48;16.50;99.90
8872;DHT22;4472;52.092;9.820;2022-10-16T07:50:35;16.50;99.90
8872;DHT22;4472;52.092;9.820;2022-10-16T07:53:22;16.60;99.90
8872;DHT22;4472;52.092;9.820;2022-10-16T07:56:11;16.60;99.90
8872;DHT22;4472;52.092;9.820;2022-10-16T07:58:58;16.80;99.90
8872;DHT22;4472;52.092;9.820;2022-10-16T08:01:45;16.90;99.90
8872;DHT22;4472;52.092;9.820;2022-10-16T08:04:32;17.00;99.90
8872;DHT22;4472;52.092;9.820;2022-10-16T08:07:19;17.10;99.90
8872;DHT22;4472;52.092;9.820;2022-10-16T08:10:21;16.90;99.90
8872;DHT22;4472;52.092;9.820;2022-10-16T08:13:10;17.10;99.90
8872;DHT22;4472;52.092;9.820;2022-10-16T08:15:58;17.10;99.90
8872;DHT22;4472;52.092;9.820;2022-10-16T08:18:46;17.10;99.90
8872;DHT22;4472;52.092;9.820;2022-10-16T08:21:33;17.10;99.90
8872;DHT22;4472;52.092;9.820;2022-10-16T08:24:20;17.30;99.90
8872;DHT22;4472;52.092;9.820;2022-10-16T08:27:07;17.30;99.90
8872;DHT22;4472;52.092;9.820;2022-10-16T08:29:56;17.30;99.90
8872;DHT22;4472;52.092;9.820;2022-10-16T08:32:43;17.20;99.90
8872;DHT22;4472;52.092;9.820;2022-10-16T08:35:30;17.20;99.90
8872;DHT22;4472;52.092;9.820;2022-10-16T08:38:18;17.20;99.90
8872;DHT22;4472;52.092;9.820;2022-10-16T08:41:28;17.20;99.90
8872;DHT22;4472;52.092;9.820;2022-10-16T08:44:34;17.30;99.90
8872;DHT22;4472;52.092;9.820;2022-10-16T08:47:35;17.50;99.90
8872;DHT22;4472;52.092;9.820;2022-10-16T08:50:24;17.70;99.90
8872;DHT22;4472;52.092;9.820;2022-10-16T08:53:16;17.80;99.90
8872;DHT22;4472;52.092;9.820;2022-10-16T08:56:05;17.80;99.90
8872;DHT22;4472;52.092;9.820;2022-10-16T08:58:53;17.90;99.90
8872;DHT22;4472;52.092;9.820;2022-10-16T09:01:44;17.80;99.90
8872;DHT22;4472;52.092;9.820;2022-10-16T09:04:51;17.90;99.90
8872;DHT22;4472;52.092;9.820;2022-10-16T09:07:43;17.90;99.90
8872;DHT22;4472;52.092;9.820;2022-10-16T09:10:41;18.00;99.90
8872;DHT22;4472;52.092;9.820;2022-10-16T09:13:33;18.00;99.90
8872;DHT22;4472;52.092;9.820;2022-10-16T09:16:24;18.00;99.90
8872;DHT22;4472;52.092;9.820;2022-10-16T09:19:17;18.00;99.90
8872;DHT22;4472;52.092;9.820;2022-10-16T09:22:14;17.90;99.90
8872;DHT22;4472;52.092;9.820;2022-10-16T09:25:11;17.80;99.90
8872;DHT22;4472;52.092;9.820;2022-10-16T09:27:58;17.80;99.90
8872;DHT22;4472;52.092;9.820;2022-10-16T09:30:46;17.80;99.90
8872;DHT22;4472;52.092;9.820;2022-10-16T09:33:36;17.80;99.90
8872;DHT22;4472;52.092;9.820;2022-10-16T09:36:27;17.60;99.90
8872;DHT22;4472;52.092;9.820;2022-10-16T09:39:20;17.60;99.90
8872;DHT22;4472;52.092;9.820;2022-10-16T09:42:11;17.60;99.90
8872;DHT22;4472;52.092;9.820;2022-10-16T09:45:22;17.70;99.90
8872;DHT22;4472;52.092;9.820;2022-10-16T09:48:22;17.60;99.90
8872;DHT22;4472;52.092;9.820;2022-10-16T09:51:21;17.60;99.90
8872;DHT22;4472;52.092;9.820;2022-10-16T09:54:20;17.50;99.90
8872;DHT22;4472;52.092;9.820;2022-10-16T09:57:17;17.50;99.90
8872;DHT22;4472;52.092;9.820;2022-10-16T10:00:10;17.40;99.90
8872;DHT22;4472;52.092;9.820;2022-10-16T10:03:12;17.40;99.90
8872;DHT22;4472;52.092;9.820;2022-10-16T10:06:16;17.40;99.90
8872;DHT22;4472;52.092;9.820;2022-10-16T10:09:22;17.40;99.90
8872;DHT22;4472;52.092;9.820;2022-10-16T10:12:20;17.40;99.90
8872;DHT22;4472;52.092;9.820;2022-10-16T10:15:16;17.60;99.90
8872;DHT22;4472;52.092;9.820;2022-10-16T10:18:18;17.70;99.90
8872;DHT22;4472;52.092;9.820;2022-10-16T10:21:16;17.80;99.90
8872;DHT22;4472;52.092;9.820;2022-10-16T10:24:12;18.00;99.90
8872;DHT22;4472;52.092;9.820;2022-10-16T10:27:15;18.20;99.90
8872;DHT22;4472;52.092;9.820;2022-10-16T10:30:13;18.30;99.90
8872;DHT22;4472;52.092;9.820;2022-10-16T10:33:19;18.60;99.90
8872;DHT22;4472;52.092;9.820;2022-10-16T10:36:28;18.80;99.90
8872;DHT22;4472;52.092;9.820;2022-10-16T10:39:28;18.90;99.90
8872;DHT22;4472;52.092;9.820;2022-10-16T10:42:31;19.00;99.90
8872;DHT22;4472;52.092;9.820;2022-10-16T10:45:34;19.00;99.90
8872;DHT22;4472;52.092;9.820;2022-10-16T10:48:50;18.80;99.90
8872;DHT22;4472;52.092;9.820;2022-10-16T10:51:55;19.10;99.90
8872;DHT22;4472;52.092;9.820;2022-10-16T10:54:58;19.30;99.90
8872;DHT22;4472;52.092;9.820;2022-10-16T10:58:10;19.40;99.90
8872;DHT22;4472;52.092;9.820;2022-10-16T11:01:08;19.50;99.90
8872;DHT22;4472;52.092;9.820;2022-10-16T11:07:36;19.70;99.90
8872;DHT22;4472;52.092;9.820;2022-10-16T11:10:40;19.60;99.90
8872;DHT22;4472;52.092;9.820;2022-10-16T11:13:43;19.70;99.90
8872;DHT22;4472;52.092;9.820;2022-10-16T11:16:42;19.70;99.90
8872;DHT22;4472;52.092;9.820;2022-10-16T11:19:37;19.70;99.90
8872;DHT22;4472;52.092;9.820;2022-10-16T11:22:32;19.80;99.90
8872;DHT22;4472;52.092;9.820;2022-10-16T11:25:23;19.90;99.90
8872;DHT22;4472;52.092;9.820;2022-10-16T11:28:15;20.00;99.90
8872;DHT22;4472;52.092;9.820;2022-10-16T11:31:13;19.90;99.90
8872;DHT22;4472;52.092;9.820;2022-10-16T11:34:08;19.90;99.60
8872;DHT22;4472;52.092;9.820;2022-10-16T11:37:08;19.80;99.90
8872;DHT22;4472;52.092;9.820;2022-10-16T11:40:10;19.90;98.90
8872;DHT22;4472;52.092;9.820;2022-10-16T11:43:10;19.90;99.30
8872;DHT22;4472;52.092;9.820;2022-10-16T11:46:04;19.80;99.00
8872;DHT22;4472;52.092;9.820;2022-10-16T11:49:03;19.90;99.50
8872;DHT22;4472;52.092;9.820;2022-10-16T11:52:00;19.70;98.60
8872;DHT22;4472;52.092;9.820;2022-10-16T11:54:55;19.60;98.70
8872;DHT22;4472;52.092;9.820;2022-10-16T11:57:47;19.60;99.20
8872;DHT22;4472;52.092;9.820;2022-10-16T12:00:42;19.80;98.80
8872;DHT22;4472;52.092;9.820;2022-10-16T12:03:40;19.80;98.90
8872;DHT22;4472;52.092;9.820;2022-10-16T12:06:35;19.90;99.00
8872;DHT22;4472;52.092;9.820;2022-10-16T12:09:26;20.00;99.10
8872;DHT22;4472;52.092;9.820;2022-10-16T12:12:26;20.10;99.10
8872;DHT22;4472;52.092;9.820;2022-10-16T12:15:23;20.20;97.50
8872;DHT22;4472;52.092;9.820;2022-10-16T12:18:21;20.20;97.00
8872;DHT22;4472;52.092;9.820;2022-10-16T12:21:10;19.80;97.50
8872;DHT22;4472;52.092;9.820;2022-10-16T12:24:04;19.90;98.10
8872;DHT22;4472;52.092;9.820;2022-10-16T12:26:53;19.90;98.00
8872;DHT22;4472;52.092;9.820;2022-10-16T12:29:42;19.90;97.80
8872;DHT22;4472;52.092;9.820;2022-10-16T12:32:34;19.90;97.90
8872;DHT22;4472;52.092;9.820;2022-10-16T12:35:25;19.90;97.60
8872;DHT22;4472;52.092;9.820;2022-10-16T12:38:19;19.90;98.00
8872;DHT22;4472;52.092;9.820;2022-10-16T12:41:09;19.90;97.80
8872;DHT22;4472;52.092;9.820;2022-10-16T12:44:01;19.90;97.40
8872;DHT22;4472;52.092;9.820;2022-10-16T12:46:49;19.80;97.20
8872;DHT22;4472;52.092;9.820;2022-10-16T12:49:38;19.90;97.30
8872;DHT22;4472;52.092;9.820;2022-10-16T12:52:37;19.70;97.40
8872;DHT22;4472;52.092;9.820;2022-10-16T12:55:26;19.80;97.30
8872;DHT22;4472;52.092;9.820;2022-10-16T12:58:24;19.80;97.30
8872;DHT22;4472;52.092;9.820;2022-10-16T13:01:32;19.70;97.10
8872;DHT22;4472;52.092;9.820;2022-10-16T13:04:38;19.60;97.60
8872;DHT22;4472;52.092;9.820;2022-10-16T13:07:52;19.60;97.90
8872;DHT22;4472;52.092;9.820;2022-10-16T13:10:50;19.60;96.80
8872;DHT22;4472;52.092;9.820;2022-10-16T13:17:02;19.70;97.50
8872;DHT22;4472;52.092;9.820;2022-10-16T13:19:58;19.80;97.50
8872;DHT22;4472;52.092;9.820;2022-10-16T13:22:55;19.90;97.40
8872;DHT22;4472;52.092;9.820;2022-10-16T13:25:55;20.00;96.90
8872;DHT22;4472;52.092;9.820;2022-10-16T13:28:45;19.80;96.50
8872;DHT22;4472;52.092;9.820;2022-10-16T13:31:33;19.70;96.60
8872;DHT22;4472;52.092;9.820;2022-10-16T13:34:22;19.60;97.00
8872;DHT22;4472;52.092;9.820;2022-10-16T13:37:17;19.60;97.70
8872;DHT22;4472;52.092;9.820;2022-10-16T13:40:18;19.80;97.70
8872;DHT22;4472;52.092;9.820;2022-10-16T13:43:07;19.90;96.50
8872;DHT22;4472;52.092;9.820;2022-10-16T13:45:59;20.00;97.00
8872;DHT22;4472;52.092;9.820;2022-10-16T13:48:56;20.10;96.60
8872;DHT22;4472;52.092;9.820;2022-10-16T13:51:54;20.20;95.80
8872;DHT22;4472;52.092;9.820;2022-10-16T13:54:42;20.20;95.60
8872;DHT22;4472;52.092;9.820;2022-10-16T13:57:29;20.30;96.20
8872;DHT22;4472;52.092;9.820;2022-10-16T14:00:22;20.40;96.30
8872;DHT22;4472;52.092;9.820;2022-10-16T14:03:14;19.80;95.40
8872;DHT22;4472;52.092;9.820;2022-10-16T14:06:03;20.20;95.50
8872;DHT22;4472;52.092;9.820;2022-10-16T14:08:55;20.10;95.40
8872;DHT22;4472;52.092;9.820;2022-10-16T14:11:48;20.00;96.00
8872;DHT22;4472;52.092;9.820;2022-10-16T14:14:41;20.00;96.00
8872;DHT22;4472;52.092;9.820;2022-10-16T14:17:30;19.90;95.90
8872;DHT22;4472;52.092;9.820;2022-10-16T14:20:22;20.60;96.70
8872;DHT22;4472;52.092;9.820;2022-10-16T14:23:20;19.70;96.20
8872;DHT22;4472;52.092;9.820;2022-10-16T14:26:19;19.70;96.20
8872;DHT22;4472;52.092;9.820;2022-10-16T14:29:12;19.60;96.50
8872;DHT22;4472;52.092;9.820;2022-10-16T14:32:01;19.50;96.80
8872;DHT22;4472;52.092;9.820;2022-10-16T14:34:54;19.40;96.90
8872;DHT22;4472;52.092;9.820;2022-10-16T14:37:44;19.40;97.20
8872;DHT22;4472;52.092;9.820;2022-10-16T14:40:33;19.40;97.00
8872;DHT22;4472;52.092;9.820;2022-10-16T14:43:23;19.40;97.20
8872;DHT22;4472;52.092;9.820;2022-10-16T14:46:15;19.50;97.00
8872;DHT22;4472;52.092;9.820;2022-10-16T14:49:19;19.50;97.20
8872;DHT22;4472;52.092;9.820;2022-10-16T14:52:11;19.50;97.20
8872;DHT22;4472;52.092;9.820;2022-10-16T14:55:00;19.50;96.80
8872;DHT22;4472;52.092;9.820;2022-10-16T14:57:47;19.50;97.20
8872;DHT22;4472;52.092;9.820;2022-10-16T15:00:35;19.40;97.00
8872;DHT22;4472;52.092;9.820;2022-10-16T15:03:22;19.40;96.80
8872;DHT22;4472;52.092;9.820;2022-10-16T15:06:10;19.30;97.00
8872;DHT22;4472;52.092;9.820;2022-10-16T15:08:58;19.30;97.10
8872;DHT22;4472;52.092;9.820;2022-10-16T15:11:46;19.30;97.50
8872;DHT22;4472;52.092;9.820;2022-10-16T15:14:34;19.30;97.60
8872;DHT22;4472;52.092;9.820;2022-10-16T15:17:21;19.20;98.30
8872;DHT22;4472;52.092;9.820;2022-10-16T15:20:08;19.40;98.30
8872;DHT22;4472;52.092;9.820;2022-10-16T15:22:56;19.10;98.20
8872;DHT22;4472;52.092;9.820;2022-10-16T15:25:45;19.10;98.50
8872;DHT22;4472;52.092;9.820;2022-10-16T15:28:34;19.00;98.70
8872;DHT22;4472;52.092;9.820;2022-10-16T15:31:21;19.00;98.80
8872;DHT22;4472;52.092;9.820;2022-10-16T15:34:10;18.90;98.90
8872;DHT22;4472;52.092;9.820;2022-10-16T15:37:02;18.80;99.20
8872;DHT22;4472;52.092;9.820;2022-10-16T15:39:50;18.70;99.30
8872;DHT22;4472;52.092;9.820;2022-10-16T15:42:37;18.60;99.50
8872;DHT22;4472;52.092;9.820;2022-10-16T15:45:26;18.50;99.90
8872;DHT22;4472;52.092;9.820;2022-10-16T15:48:13;18.40;99.90
8872;DHT22;4472;52.092;9.820;2022-10-16T15:51:00;18.30;99.90
8872;DHT22;4472;52.092;9.820;2022-10-16T15:53:51;18.20;99.90
8872;DHT22;4472;52.092;9.820;2022-10-16T15:56:38;18.10;99.90
8872;DHT22;4472;52.092;9.820;2022-10-16T15:59:25;18.00;99.90
8872;DHT22;4472;52.092;9.820;2022-10-16T16:02:14;18.00;99.90
8872;DHT22;4472;52.092;9.820;2022-10-16T16:05:02;17.80;99.90
8872;DHT22;4472;52.092;9.820;2022-10-16T16:07:49;17.80;99.90
8872;DHT22;4472;52.092;9.820;2022-10-16T16:10:36;17.70;99.90
8872;DHT22;4472;52.092;9.820;2022-10-16T16:13:24;17.60;99.90
8872;DHT22;4472;52.092;9.820;2022-10-16T16:16:14;17.40;99.90
8872;DHT22;4472;52.092;9.820;2022-10-16T16:19:02;17.30;99.90
8872;DHT22;4472;52.092;9.820;2022-10-16T16:21:50;17.20;99.90
8872;DHT22;4472;52.092;9.820;2022-10-16T16:24:38;17.10;99.90
8872;DHT22;4472;52.092;9.820;2022-10-16T16:27:25;17.00;99.90
8872;DHT22;4472;52.092;9.820;2022-10-16T16:30:14;16.90;99.90
8872;DHT22;4472;52.092;9.820;2022-10-16T16:33:03;16.80;99.90
8872;DHT22;4472;52.092;9.820;2022-10-16T16:35:56;16.70;99.90
8872;DHT22;4472;52.092;9.820;2022-10-16T16:38:44;16.60;99.90
8872;DHT22;4472;52.092;9.820;2022-10-16T16:41:31;16.60;99.90
8872;DHT22;4472;52.092;9.820;2022-10-16T16:44:18;16.40;99.90
8872;DHT22;4472;52.092;9.820;2022-10-16T16:47:06;16.30;99.90
8872;DHT22;4472;52.092;9.820;2022-10-16T16:49:53;16.30;99.90
8872;DHT22;4472;52.092;9.820;2022-10-16T16:52:42;16.20;99.90
8872;DHT22;4472;52.092;9.820;2022-10-16T16:55:33;16.10;99.90
8872;DHT22;4472;52.092;9.820;2022-10-16T16:58:20;16.00;99.90
8872;DHT22;4472;52.092;9.820;2022-10-16T17:01:09;15.90;99.90
8872;DHT22;4472;52.092;9.820;2022-10-16T17:03:58;15.90;99.90
8872;DHT22;4472;52.092;9.820;2022-10-16T17:06:47;15.80;99.90
8872;DHT22;4472;52.092;9.820;2022-10-16T17:09:35;15.80;99.90
8872;DHT22;4472;52.092;9.820;2022-10-16T17:12:23;15.80;99.90
8872;DHT22;4472;52.092;9.820;2022-10-16T17:15:10;15.90;99.90
8872;DHT22;4472;52.092;9.820;2022-10-16T17:17:57;15.90;99.90
8872;DHT22;4472;52.092;9.820;2022-10-16T17:20:44;15.80;99.90
8872;DHT22;4472;52.092;9.820;2022-10-16T17:23:32;15.80;99.90
8872;DHT22;4472;52.092;9.820;2022-10-16T17:26:21;16.00;99.90
8872;DHT22;4472;52.092;9.820;2022-10-16T17:29:11;15.80;99.90
8872;DHT22;4472;52.092;9.820;2022-10-16T17:31:58;15.70;99.90
8872;DHT22;4472;52.092;9.820;2022-10-16T17:34:45;15.70;99.90
8872;DHT22;4472;52.092;9.820;2022-10-16T17:37:32;15.70;99.90
8872;DHT22;4472;52.092;9.820;2022-10-16T17:40:20;15.70;99.90
8872;DHT22;4472;52.092;9.820;2022-10-16T17:43:09;15.80;99.90
8872;DHT22;4472;52.092;9.820;2022-10-16T17:45:56;15.60;99.90
8872;DHT22;4472;52.092;9.820;2022-10-16T17:48:45;15.60;99.90
8872;DHT22;4472;52.092;9.820;2022-10-16T17:51:33;15.50;99.90
8872;DHT22;4472;52.092;9.820;2022-10-16T17:54:21;15.60;99.90
8872;DHT22;4472;52.092;9.820;2022-10-16T17:57:08;15.50;99.90
8872;DHT22;4472;52.092;9.820;2022-10-16T17:59:57;15.70;99.90
8872;DHT22;4472;52.092;9.820;2022-10-16T18:02:44;15.50;99.90
8872;DHT22;4472;52.092;9.820;2022-10-16T18:05:37;15.50;99.90
8872;DHT22;4472;52.092;9.820;2022-10-16T18:08:24;15.50;99.90
8872;DHT22;4472;52.092;9.820;2022-10-16T18:11:11;15.40;99.90
8872;DHT22;4472;52.092;9.820;2022-10-16T18:13:59;15.50;99.90
8872;DHT22;4472;52.092;9.820;2022-10-16T18:16:47;15.40;99.90
8872;DHT22;4472;52.092;9.820;2022-10-16T18:19:35;15.60;99.90
8872;DHT22;4472;52.092;9.820;2022-10-16T18:22:22;15.40;99.90
8872;DHT22;4472;52.092;9.820;2022-10-16T18:25:10;15.40;99.90
8872;DHT22;4472;52.092;9.820;2022-10-16T18:27:57;15.30;99.90
8872;DHT22;4472;52.092;9.820;2022-10-16T18:30:44;15.40;99.90
8872;DHT22;4472;52.092;9.820;2022-10-16T18:33:33;15.40;99.90
8872;DHT22;4472;52.092;9.820;2022-10-16T18:36:23;15.40;99.90
8872;DHT22;4472;52.092;9.820;2022-10-16T18:39:11;15.50;99.90
8872;DHT22;4472;52.092;9.820;2022-10-16T18:42:01;15.50;99.90